Terminal Aerodrome Forecast
Issued by NWS

Home | Current Version | Previous Version | Text Only | Print | Product List | Glossary On
Versions: 1 2 3 4 5 6 7 8 9 10 11 12 13 14 15 16 17 18 19 20 21 22 23 24
000
FTUS43 KMKX 250520
TAFUES
TAF
KUES 250520Z 2506/2606 00000KT 6SM BR FEW070
     FM250700 00000KT 4SM BR SCT060
     FM251000 00000KT 2SM BR SCT060
      TEMPO 2510/2512 1SM BR
     FM251400 VRB03KT P6SM SCT060
     FM251600 14007KT P6SM SCT050 BKN150
     FM252100 14008KT P6SM VCTS BKN050CB
      TEMPO 2521/2523 3SM TSRA BKN035CB
     FM260400 15004KT 5SM BR VCTS OVC050CB=

USA.gov is the U.S. government's official web portal to all federal, state and local government web resources and services.